createdAt,value
2022-12-17T00:00:14.604Z,100754.47
2022-12-17T00:03:00.865Z,100752.09
2022-12-17T00:05:47.269Z,100748.50
2022-12-17T00:08:33.575Z,100756.69
2022-12-17T00:11:19.802Z,100749.84
2022-12-17T00:14:06.150Z,100728.34
2022-12-17T00:16:52.269Z,100736.97
2022-12-17T00:19:38.204Z,100725.69
2022-12-17T00:22:24.464Z,100723.00
2022-12-17T00:25:10.648Z,100721.69
2022-12-17T00:27:56.648Z,100719.88
2022-12-17T00:30:42.990Z,100716.47
2022-12-17T00:33:31.471Z,100706.53
2022-12-17T00:36:17.654Z,100698.09
2022-12-17T00:39:04.227Z,100697.81
2022-12-17T00:41:50.468Z,100678.66
2022-12-17T00:44:36.431Z,100678.25
2022-12-17T00:47:22.651Z,100661.63
2022-12-17T00:50:08.779Z,100661.47
2022-12-17T00:52:54.788Z,100655.38
2022-12-17T00:55:42.741Z,100648.56
2022-12-17T00:58:28.852Z,100651.97
2022-12-17T01:01:18.788Z,100654.81
2022-12-17T01:04:05.571Z,100658.66
2022-12-17T01:06:52.249Z,100662.53
2022-12-17T01:09:40.083Z,100661.91
2022-12-17T01:12:26.953Z,100664.28
2022-12-17T01:15:13.790Z,100659.66
2022-12-17T01:17:59.989Z,100664.13
2022-12-17T01:20:46.193Z,100652.84
2022-12-17T01:23:32.293Z,100659.38
2022-12-17T01:26:21.323Z,100653.84
2022-12-17T01:29:07.377Z,100671.81
2022-12-17T01:31:53.532Z,100666.03
2022-12-17T01:34:39.521Z,100658.88
2022-12-17T01:37:25.484Z,100659.16
2022-12-17T01:40:12.024Z,100648.81
2022-12-17T01:43:03.415Z,100649.09
2022-12-17T01:46:00.074Z,100648.81
2022-12-17T01:49:15.615Z,100643.38
2022-12-17T01:52:02.573Z,100632.84
2022-12-17T01:54:48.918Z,100628.53
2022-12-17T01:57:34.887Z,100613.41
2022-12-17T02:00:26.024Z,100631.06
2022-12-17T02:03:12.541Z,100614.78
2022-12-17T02:06:14.459Z,100615.94
2022-12-17T02:09:35.917Z,100623.84
2022-12-17T02:12:35.707Z,100623.69
2022-12-17T02:15:31.012Z,100624.88
2022-12-17T02:18:24.302Z,100606.19
2022-12-17T02:21:13.275Z,100604.09
2022-12-17T02:24:20.849Z,100601.88
2022-12-17T02:27:10.068Z,100590.16
2022-12-17T02:30:04.775Z,100584.84
2022-12-17T02:32:56.186Z,100588.09
2022-12-17T02:35:50.031Z,100598.44
2022-12-17T02:38:41.890Z,100591.34
2022-12-17T02:41:49.071Z,100587.50
2022-12-17T02:44:38.477Z,100582.19
2022-12-17T02:47:29.209Z,100574.00
2022-12-17T02:50:15.459Z,100557.72
2022-12-17T02:53:07.825Z,100544.41
2022-12-17T02:55:55.039Z,100544.69
2022-12-17T02:58:41.414Z,100531.94
2022-12-17T03:01:27.824Z,100532.22
2022-12-17T03:04:14.079Z,100530.00
2022-12-17T03:07:03.980Z,100538.59
2022-12-17T03:09:50.160Z,100524.06
2022-12-17T03:12:37.324Z,100534.31
2022-12-17T03:15:23.506Z,100533.72
2022-12-17T03:18:09.884Z,100539.50
2022-12-17T03:20:55.930Z,100530.59
2022-12-17T03:23:45.033Z,100525.00
2022-12-17T03:26:30.987Z,100522.91
2022-12-17T03:29:17.321Z,100523.78
2022-12-17T03:32:06.381Z,100507.78
2022-12-17T03:34:52.780Z,100494.00
2022-12-17T03:37:38.775Z,100498.88
2022-12-17T03:40:25.446Z,100497.53
2022-12-17T03:43:11.784Z,100491.34
2022-12-17T03:45:59.882Z,100485.84
2022-12-17T03:48:45.878Z,100481.25
2022-12-17T03:51:31.942Z,100486.72
2022-12-17T03:54:18.136Z,100478.75
2022-12-17T03:57:04.374Z,100472.22
2022-12-17T03:59:50.445Z,100468.50
2022-12-17T04:02:36.619Z,100472.97
2022-12-17T04:05:22.716Z,100483.16
2022-12-17T04:08:08.957Z,100486.56
2022-12-17T04:10:55.132Z,100474.88
2022-12-17T04:13:43.547Z,100470.31
2022-12-17T04:16:32.677Z,100475.19
2022-12-17T04:19:18.538Z,100471.06
2022-12-17T04:22:04.518Z,100481.56
2022-12-17T04:24:50.863Z,100486.59
2022-12-17T04:27:36.812Z,100483.78
2022-12-17T04:30:23.559Z,100483.50
2022-12-17T04:33:09.642Z,100471.75
2022-12-17T04:35:55.884Z,100464.97
2022-12-17T04:38:42.165Z,100450.31
2022-12-17T04:41:28.411Z,100437.00
2022-12-17T04:44:14.619Z,100435.97
2022-12-17T04:47:00.690Z,100444.72
2022-12-17T04:49:46.936Z,100436.41
2022-12-17T04:52:33.200Z,100438.75
2022-12-17T04:55:19.614Z,100444.72
2022-12-17T04:58:05.747Z,100436.25
2022-12-17T05:00:51.708Z,100439.69
2022-12-17T05:03:38.402Z,100437.72
2022-12-17T05:06:24.618Z,100438.03
2022-12-17T05:09:10.636Z,100442.75
2022-12-17T05:11:56.927Z,100439.34
2022-12-17T05:14:43.094Z,100426.63
2022-12-17T05:17:29.268Z,100426.47
2022-12-17T05:20:17.934Z,100418.94
2022-12-17T05:23:03.727Z,100407.53
2022-12-17T05:25:49.852Z,100415.25
2022-12-17T05:28:36.161Z,100425.00
2022-12-17T05:31:22.429Z,100423.09
2022-12-17T05:34:08.507Z,100422.63
2022-12-17T05:36:54.682Z,100421.88
2022-12-17T05:39:40.903Z,100408.88
2022-12-17T05:42:27.270Z,100397.63
2022-12-17T05:45:13.583Z,100398.03
2022-12-17T05:47:59.818Z,100400.41
2022-12-17T05:50:48.812Z,100415.53
2022-12-17T05:53:35.000Z,100397.91
2022-12-17T05:56:21.547Z,100413.75
2022-12-17T05:59:07.850Z,100411.09
2022-12-17T06:01:53.985Z,100418.63
2022-12-17T06:04:50.866Z,100405.91
2022-12-17T06:07:39.437Z,100398.03
2022-12-17T06:10:25.824Z,100407.34
2022-12-17T06:13:17.664Z,100407.94
2022-12-17T06:16:07.929Z,100401.88
2022-12-17T06:18:54.843Z,100403.66
2022-12-17T06:21:41.554Z,100394.47
2022-12-17T06:24:27.557Z,100394.78
2022-12-17T06:27:13.928Z,100399.06
2022-12-17T06:29:59.994Z,100396.22
2022-12-17T06:32:46.208Z,100393.41
2022-12-17T06:35:32.403Z,100398.19
2022-12-17T06:38:24.234Z,100400.25
2022-12-17T06:41:10.961Z,100394.31
2022-12-17T06:43:57.271Z,100401.41
2022-12-17T06:46:43.916Z,100393.13
2022-12-17T06:49:30.019Z,100386.03
2022-12-17T06:52:16.412Z,100386.19
2022-12-17T06:55:02.581Z,100385.16
2022-12-17T06:57:50.506Z,100377.00
2022-12-17T07:00:37.079Z,100378.50
2022-12-17T07:03:23.481Z,100378.78
2022-12-17T07:06:09.430Z,100365.59
2022-12-17T07:08:55.764Z,100360.09
2022-12-17T07:11:43.449Z,100340.25
2022-12-17T07:14:31.843Z,100340.09
2022-12-17T07:17:35.478Z,100349.44
2022-12-17T07:20:22.033Z,100353.25
2022-12-17T07:23:13.337Z,100343.50
2022-12-17T07:25:59.708Z,100341.88
2022-12-17T07:28:48.990Z,100335.19
2022-12-17T07:31:35.389Z,100337.84
2022-12-17T07:34:21.758Z,100319.91
2022-12-17T07:37:07.876Z,100308.59
2022-12-17T07:40:14.051Z,100317.03
2022-12-17T07:43:00.148Z,100305.81
2022-12-17T07:45:46.196Z,100312.63
2022-12-17T07:48:35.057Z,100299.28
2022-12-17T07:51:21.095Z,100294.38
2022-12-17T07:54:07.369Z,100294.66
2022-12-17T07:56:53.603Z,100283.72
2022-12-17T07:59:39.952Z,100290.16
2022-12-17T08:02:28.995Z,100284.63
2022-12-17T08:05:15.508Z,100295.16
2022-12-17T08:08:01.471Z,100285.06
2022-12-17T08:10:47.778Z,100286.66
2022-12-17T08:13:34.354Z,100286.16
2022-12-17T08:16:21.169Z,100282.28
2022-12-17T08:19:07.362Z,100277.13
2022-12-17T08:21:53.329Z,100273.97
2022-12-17T08:24:39.671Z,100277.53
2022-12-17T08:27:25.826Z,100270.50
2022-12-17T08:30:11.832Z,100257.44
2022-12-17T08:32:57.966Z,100268.34
2022-12-17T08:35:44.000Z,100268.91
2022-12-17T08:38:30.071Z,100272.56
2022-12-17T08:41:19.306Z,100262.91
2022-12-17T08:44:05.523Z,100260.00
2022-12-17T08:46:51.902Z,100249.91
2022-12-17T08:49:38.214Z,100240.34
2022-12-17T08:52:24.339Z,100233.38
2022-12-17T08:55:10.438Z,100232.91
2022-12-17T08:57:56.551Z,100231.19
2022-12-17T09:00:42.827Z,100238.28
2022-12-17T09:03:29.014Z,100233.59
2022-12-17T09:06:15.061Z,100217.16
2022-12-17T09:09:01.399Z,100218.13
2022-12-17T09:11:47.770Z,100230.03
2022-12-17T09:14:33.680Z,100231.34
2022-12-17T09:17:19.901Z,100228.69
2022-12-17T09:20:06.234Z,100222.69
2022-12-17T09:22:52.521Z,100219.66
2022-12-17T09:25:38.814Z,100215.03
2022-12-17T09:28:25.186Z,100211.75
2022-12-17T09:31:11.150Z,100227.28
2022-12-17T09:33:57.543Z,100227.88
2022-12-17T09:36:49.568Z,100227.00
2022-12-17T09:39:37.008Z,100206.03
2022-12-17T09:42:33.204Z,100215.66
2022-12-17T09:45:42.361Z,100219.31
2022-12-17T09:48:40.603Z,100221.72
2022-12-17T09:51:48.016Z,100204.31
2022-12-17T09:54:48.026Z,100206.81
2022-12-17T09:57:40.207Z,100191.56
2022-12-17T10:00:46.783Z,100188.69
2022-12-17T10:03:41.763Z,100181.75
2022-12-17T10:06:34.363Z,100184.28
2022-12-17T10:09:27.691Z,100181.03
2022-12-17T10:12:15.092Z,100182.03
2022-12-17T10:15:01.303Z,100175.84
2022-12-17T10:17:47.673Z,100188.34
2022-12-17T10:20:51.307Z,100184.69
2022-12-17T10:23:46.163Z,100180.78
2022-12-17T10:26:37.477Z,100179.13
2022-12-17T10:29:32.834Z,100184.69
2022-12-17T10:32:35.619Z,100182.16
2022-12-17T10:35:27.901Z,100188.13
2022-12-17T10:38:14.070Z,100184.69
2022-12-17T10:41:00.111Z,100184.78
2022-12-17T10:43:50.321Z,100187.97
2022-12-17T10:46:51.091Z,100187.88
2022-12-17T10:49:40.324Z,100179.38
2022-12-17T10:52:45.754Z,100189.69
2022-12-17T10:55:46.751Z,100172.38
2022-12-17T10:58:41.667Z,100167.88
2022-12-17T11:01:41.354Z,100147.97
2022-12-17T11:04:48.797Z,100145.47
2022-12-17T11:07:48.095Z,100138.78
2022-12-17T11:10:46.108Z,100137.88
2022-12-17T11:13:55.551Z,100147.59
2022-12-17T11:16:46.457Z,100135.97
2022-12-17T11:19:40.112Z,100135.84
2022-12-17T11:22:56.914Z,100141.00
2022-12-17T11:25:58.005Z,100143.19
2022-12-17T11:28:46.566Z,100135.59
2022-12-17T11:31:50.851Z,100128.50
2022-12-17T11:35:00.998Z,100130.44
2022-12-17T11:38:13.267Z,100129.81
2022-12-17T11:41:03.778Z,100153.16
2022-12-17T11:44:04.967Z,100147.59
2022-12-17T11:46:59.427Z,100137.78
2022-12-17T11:50:06.567Z,100139.56
2022-12-17T11:53:00.464Z,100138.03
2022-12-17T11:56:08.989Z,100138.38
2022-12-17T11:59:25.335Z,100134.72
2022-12-17T12:02:50.666Z,100130.16
2022-12-17T12:05:57.970Z,100138.91
2022-12-17T12:08:49.804Z,100147.09
2022-12-17T12:11:50.271Z,100134.59
2022-12-17T12:15:01.724Z,100137.78
2022-12-17T12:18:07.618Z,100138.16
2022-12-17T12:21:08.766Z,100133.63
2022-12-17T12:24:20.790Z,100113.13
2022-12-17T12:27:14.711Z,100119.41
2022-12-17T12:30:06.537Z,100112.47
2022-12-17T12:33:30.310Z,100126.28
2022-12-17T12:36:21.972Z,100117.69
2022-12-17T12:39:13.371Z,100119.06
2022-12-17T12:42:22.386Z,100116.44
2022-12-17T12:45:39.859Z,100117.94
2022-12-17T12:49:22.830Z,100124.97
2022-12-17T12:52:11.609Z,100120.25
2022-12-17T12:55:03.863Z,100133.16
2022-12-17T12:57:56.783Z,100114.84
2022-12-17T13:00:57.134Z,100129.69
2022-12-17T13:03:50.670Z,100124.00
2022-12-17T13:06:54.359Z,100117.88
2022-12-17T13:09:37.670Z,100115.31
2022-12-17T13:12:05.979Z,100107.84
2022-12-17T13:14:48.359Z,100105.94
2022-12-17T13:17:16.133Z,100116.91
2022-12-17T13:19:56.422Z,100105.78
2022-12-17T13:22:24.571Z,100107.31
2022-12-17T13:24:56.892Z,100118.81
2022-12-17T13:27:31.371Z,100114.78
2022-12-17T13:30:22.357Z,100128.06
2022-12-17T13:33:08.566Z,100129.97
2022-12-17T13:35:57.403Z,100130.69
2022-12-17T13:38:31.719Z,100133.09
2022-12-17T13:41:14.158Z,100123.88
2022-12-17T13:43:48.755Z,100103.94
2022-12-17T13:46:22.278Z,100099.03
2022-12-17T13:49:00.454Z,100085.41
2022-12-17T13:51:30.631Z,100096.13
2022-12-17T13:54:03.680Z,100080.72
2022-12-17T13:56:32.783Z,100089.03
2022-12-17T13:59:09.253Z,100087.75
2022-12-17T14:01:46.376Z,100090.81
2022-12-17T14:04:29.044Z,100072.13
2022-12-17T14:07:03.021Z,100057.84
2022-12-17T14:09:44.056Z,100061.91
2022-12-17T14:12:23.799Z,100056.22
2022-12-17T14:15:00.076Z,100056.75
2022-12-17T14:17:41.010Z,100069.66
2022-12-17T14:20:14.152Z,100070.38
2022-12-17T14:22:51.077Z,100081.38
2022-12-17T14:25:28.722Z,100078.31
2022-12-17T14:28:01.988Z,100074.50
2022-12-17T14:30:43.039Z,100072.91
2022-12-17T14:33:30.877Z,100072.69
2022-12-17T14:36:01.445Z,100071.03
2022-12-17T14:38:38.396Z,100074.72
2022-12-17T14:41:40.689Z,100075.13
2022-12-17T14:44:21.769Z,100075.03
2022-12-17T14:46:55.383Z,100077.16
2022-12-17T14:49:22.955Z,100067.19
2022-12-17T14:51:50.594Z,100065.28
2022-12-17T14:54:22.192Z,100060.47
2022-12-17T14:56:50.523Z,100062.38
2022-12-17T14:59:26.200Z,100063.88
2022-12-17T15:01:56.431Z,100052.72
2022-12-17T15:04:27.607Z,100049.75
2022-12-17T15:07:03.166Z,100031.06
2022-12-17T15:09:30.842Z,100026.25
2022-12-17T15:11:58.279Z,100023.47
2022-12-17T15:14:25.863Z,100014.22
2022-12-17T15:16:53.441Z,100018.38
2022-12-17T15:19:21.685Z,100002.78
2022-12-17T15:21:49.291Z,100014.63
2022-12-17T15:24:21.117Z,100006.56
2022-12-17T15:26:49.646Z,100005.91
2022-12-17T15:29:17.175Z,99997.47
2022-12-17T15:31:44.760Z,99973.00
2022-12-17T15:34:12.876Z,99976.28
2022-12-17T15:36:40.497Z,99975.63
2022-12-17T15:39:09.693Z,99992.75
2022-12-17T15:41:56.062Z,100009.78
2022-12-17T15:44:23.923Z,100015.72
2022-12-17T15:46:51.419Z,99994.03
2022-12-17T15:49:18.953Z,100001.38
2022-12-17T15:51:46.441Z,99996.34
2022-12-17T15:54:14.355Z,99994.06
2022-12-17T15:56:41.829Z,99986.91
2022-12-17T15:59:09.550Z,100001.94
2022-12-17T16:01:37.401Z,100027.78
2022-12-17T16:04:08.952Z,100045.22
2022-12-17T16:06:39.687Z,100039.94
2022-12-17T16:09:07.276Z,100016.59
2022-12-17T16:11:35.090Z,100029.97
2022-12-17T16:14:02.680Z,100017.63
2022-12-17T16:16:31.269Z,100001.22
2022-12-17T16:18:58.949Z,100016.25
2022-12-17T16:21:26.408Z,100027.47
2022-12-17T16:23:53.686Z,100021.28
2022-12-17T16:26:21.065Z,99993.50
2022-12-17T16:28:48.736Z,99994.00
2022-12-17T16:31:16.388Z,99982.13
2022-12-17T16:33:45.579Z,99990.97
2022-12-17T16:36:15.983Z,100003.88
2022-12-17T16:38:45.621Z,100006.50
2022-12-17T16:41:14.170Z,99994.78
2022-12-17T16:43:42.569Z,99979.13
2022-12-17T16:46:22.290Z,99985.81
2022-12-17T16:48:49.975Z,99997.78
2022-12-17T16:51:28.195Z,99986.94
2022-12-17T16:53:58.364Z,100004.09
2022-12-17T16:56:28.271Z,100015.53
2022-12-17T16:58:56.723Z,100006.31
2022-12-17T17:01:28.267Z,100003.25
2022-12-17T17:03:56.969Z,100000.75
2022-12-17T17:06:28.939Z,99998.84
2022-12-17T17:09:03.916Z,99986.84
2022-12-17T17:11:35.194Z,99987.72
2022-12-17T17:14:02.928Z,99973.13
2022-12-17T17:16:30.741Z,99976.28
2022-12-17T17:18:58.462Z,99970.00
2022-12-17T17:21:30.735Z,99948.09
2022-12-17T17:24:18.472Z,99933.47
2022-12-17T17:26:49.421Z,99925.16
2022-12-17T17:29:34.974Z,99925.28
2022-12-17T17:32:36.196Z,99919.59
2022-12-17T17:39:15.645Z,99917.94
2022-12-17T17:43:16.871Z,99927.16
2022-12-17T17:47:17.827Z,99922.13
2022-12-17T17:58:07.347Z,99904.06
2022-12-17T18:05:41.712Z,99883.75
2022-12-17T18:08:10.120Z,99900.50
2022-12-17T18:10:37.714Z,99902.38
2022-12-17T18:13:27.032Z,99896.59
2022-12-17T18:28:23.065Z,99897.97
2022-12-17T18:30:50.678Z,99900.38
2022-12-17T18:33:18.172Z,99903.00
2022-12-17T18:35:45.967Z,99909.09
2022-12-17T18:38:16.033Z,99902.66
2022-12-17T18:40:44.150Z,99897.09
2022-12-17T18:43:23.641Z,99898.13
2022-12-17T18:45:52.380Z,99899.78
2022-12-17T18:48:20.658Z,99901.78
2022-12-17T18:55:16.436Z,99890.19
2022-12-17T19:06:28.609Z,99852.00
2022-12-17T19:09:35.800Z,99865.13
2022-12-17T19:12:08.668Z,99860.56
2022-12-17T19:14:37.042Z,99856.56
2022-12-17T19:17:06.126Z,99843.69
2022-12-17T19:19:33.956Z,99829.56
2022-12-17T19:22:02.246Z,99828.31
2022-12-17T19:24:29.944Z,99818.84
2022-12-17T19:26:57.526Z,99829.31
2022-12-17T19:29:25.176Z,99812.91
2022-12-17T19:31:52.672Z,99826.66
2022-12-17T19:34:20.346Z,99841.91
2022-12-17T19:36:48.160Z,99837.00
2022-12-17T19:39:19.472Z,99837.63
2022-12-17T19:41:47.361Z,99822.50
2022-12-17T19:44:18.056Z,99823.78
2022-12-17T19:46:45.602Z,99816.34
2022-12-17T19:49:14.760Z,99815.47
2022-12-17T19:51:44.489Z,99810.28
2022-12-17T19:54:15.222Z,99803.59
2022-12-17T19:56:44.987Z,99820.25
2022-12-17T19:59:13.436Z,99802.44
2022-12-17T20:01:44.547Z,99796.16
2022-12-17T20:04:14.284Z,99799.28
2022-12-17T20:06:44.028Z,99791.13
2022-12-17T20:09:13.271Z,99781.91
2022-12-17T20:11:41.079Z,99768.94
2022-12-17T20:14:23.798Z,99775.38
2022-12-17T20:16:59.092Z,99769.56
2022-12-17T20:19:31.970Z,99781.31
2022-12-17T20:22:01.748Z,99774.09
2022-12-17T20:24:31.931Z,99771.81
2022-12-17T20:27:01.157Z,99763.00
2022-12-17T20:29:29.601Z,99742.63
2022-12-17T20:31:57.588Z,99739.44
2022-12-17T20:34:29.511Z,99728.97
2022-12-17T20:36:57.379Z,99739.81
2022-12-17T20:39:27.417Z,99730.38
2022-12-17T20:41:56.756Z,99726.72
2022-12-17T20:44:24.504Z,99723.94
2022-12-17T20:46:52.267Z,99722.19
2022-12-17T20:49:19.935Z,99715.00
2022-12-17T20:51:48.553Z,99712.22
2022-12-17T20:54:16.157Z,99705.06
2022-12-17T20:56:46.776Z,99713.13
2022-12-17T20:59:16.307Z,99696.25
2022-12-17T21:01:44.379Z,99681.22
2022-12-17T21:04:14.668Z,99674.31
2022-12-17T21:06:45.513Z,99677.06
2022-12-17T21:09:14.220Z,99679.59
2022-12-17T21:11:42.552Z,99662.06
2022-12-17T21:14:13.075Z,99654.91
2022-12-17T21:16:41.322Z,99651.63
2022-12-17T21:19:11.331Z,99649.75
2022-12-17T21:21:39.483Z,99631.72
2022-12-17T21:24:08.245Z,99632.84
2022-12-17T21:26:38.562Z,99616.72
2022-12-17T21:29:07.885Z,99609.28
2022-12-17T21:31:42.092Z,99605.53
2022-12-17T21:34:29.386Z,99600.09
2022-12-17T21:36:57.373Z,99590.28
2022-12-17T21:39:24.911Z,99575.31
2022-12-17T21:42:11.212Z,99570.03
2022-12-17T21:44:38.762Z,99568.03
2022-12-17T21:47:06.426Z,99567.91
2022-12-17T21:49:34.143Z,99564.75
2022-12-17T21:52:08.190Z,99553.16
2022-12-17T21:54:38.635Z,99554.19
2022-12-17T21:57:07.264Z,99560.00
2022-12-17T21:59:34.841Z,99553.19
2022-12-17T22:02:02.394Z,99554.34
2022-12-17T22:04:30.200Z,99552.69
2022-12-17T22:07:04.161Z,99551.81
2022-12-17T22:09:40.384Z,99553.44
2022-12-17T22:12:39.703Z,99545.00
2022-12-17T22:15:11.093Z,99546.25
2022-12-17T22:17:40.763Z,99547.66
2022-12-17T22:20:09.388Z,99534.81
2022-12-17T22:22:37.070Z,99530.66
2022-12-17T22:25:08.951Z,99529.53
2022-12-17T22:27:41.397Z,99513.13
2022-12-17T22:30:32.832Z,99513.13
2022-12-17T22:33:17.461Z,99513.53
2022-12-17T22:38:57.696Z,99497.69
2022-12-17T22:42:56.754Z,99505.72
2022-12-17T22:44:37.804Z,99490.34
2022-12-17T22:44:51.139Z,99480.16
2022-12-17T22:47:20.584Z,99476.66
2022-12-17T22:49:48.075Z,99474.91
2022-12-17T22:52:15.740Z,99466.09
2022-12-17T22:54:45.795Z,99458.56
2022-12-17T22:57:36.752Z,99450.28
2022-12-17T23:00:01.790Z,99449.28
2022-12-17T23:02:30.079Z,99436.44
2022-12-17T23:04:57.783Z,99439.88
2022-12-17T23:07:30.067Z,99437.59
2022-12-17T23:09:59.258Z,99422.00
2022-12-17T23:12:45.325Z,99425.00
2022-12-17T23:15:12.933Z,99421.72
2022-12-17T23:17:40.402Z,99417.94
2022-12-17T23:20:08.477Z,99408.91
2022-12-17T23:22:36.058Z,99401.25
2022-12-17T23:25:04.222Z,99390.41
2022-12-17T23:27:32.018Z,99382.63
2022-12-17T23:29:59.699Z,99388.31
2022-12-17T23:32:27.596Z,99387.91
2022-12-17T23:34:55.126Z,99386.16
2022-12-17T23:37:25.160Z,99382.50
2022-12-17T23:39:52.645Z,99361.38
2022-12-17T23:42:20.165Z,99363.16
2022-12-17T23:44:47.665Z,99365.66
2022-12-17T23:47:15.124Z,99364.28
2022-12-17T23:49:42.882Z,99360.25
2022-12-17T23:52:10.539Z,99351.72
2022-12-17T23:54:38.110Z,99344.78
2022-12-17T23:57:06.244Z,99342.41
2022-12-17T23:59:34.007Z,99338.25
